createdAt,value
2018-06-02T00:00:41.356Z,20.32
2018-06-02T00:03:08.932Z,20.29
2018-06-02T00:05:36.508Z,20.23
2018-06-02T00:08:04.169Z,20.17
2018-06-02T00:10:31.796Z,20.10
2018-06-02T00:12:59.361Z,20.13
2018-06-02T00:15:26.974Z,20.07
2018-06-02T00:17:54.592Z,20.12
2018-06-02T00:20:22.209Z,20.15
2018-06-02T00:22:50.075Z,20.15
2018-06-02T00:25:17.629Z,20.12
2018-06-02T00:27:45.176Z,20.07
2018-06-02T00:30:12.735Z,19.98
2018-06-02T00:32:40.286Z,19.98
2018-06-02T00:35:07.998Z,19.92
2018-06-02T00:37:35.832Z,19.87
2018-06-02T00:40:03.555Z,19.70
2018-06-02T00:42:31.123Z,19.67
2018-06-02T00:44:58.703Z,19.70
2018-06-02T00:47:26.506Z,19.69
2018-06-02T00:49:54.066Z,19.70
2018-06-02T00:52:21.612Z,19.69
2018-06-02T00:55:00.990Z,19.70
2018-06-02T00:57:28.708Z,19.64
2018-06-02T00:59:56.433Z,19.64
2018-06-02T01:02:24.047Z,19.60
2018-06-02T01:04:51.721Z,19.60
2018-06-02T01:07:19.272Z,19.54
2018-06-02T01:09:46.873Z,19.52
2018-06-02T01:12:14.440Z,19.56
2018-06-02T01:14:42.068Z,19.50
2018-06-02T01:17:09.763Z,19.48
2018-06-02T01:19:37.370Z,19.48
2018-06-02T01:22:05.100Z,19.42
2018-06-02T01:24:32.827Z,19.36
2018-06-02T01:27:00.380Z,19.35
2018-06-02T01:29:27.941Z,19.34
2018-06-02T01:31:55.568Z,19.38
2018-06-02T01:34:23.277Z,19.37
2018-06-02T01:36:51.106Z,19.37
2018-06-02T01:39:18.781Z,19.36
2018-06-02T01:41:46.508Z,19.33
2018-06-02T01:44:14.063Z,19.30
2018-06-02T01:46:41.777Z,19.27
2018-06-02T01:49:09.377Z,19.21
2018-06-02T01:51:37.005Z,19.15
2018-06-02T01:54:04.589Z,19.07
2018-06-02T01:56:32.245Z,19.06
2018-06-02T01:58:59.805Z,19.02
2018-06-02T02:01:27.364Z,18.99
2018-06-02T02:03:54.924Z,18.98
2018-06-02T02:06:22.475Z,18.96
2018-06-02T02:08:50.129Z,18.93
2018-06-02T02:11:17.867Z,18.92
2018-06-02T02:13:45.528Z,18.87
2018-06-02T02:16:13.194Z,18.87
2018-06-02T02:18:40.747Z,18.85
2018-06-02T02:21:08.421Z,18.84
2018-06-02T02:23:36.099Z,18.86
2018-06-02T02:26:03.672Z,18.88
2018-06-02T02:28:31.232Z,18.91
2018-06-02T02:30:58.993Z,18.85
2018-06-02T02:33:26.711Z,18.81
2018-06-02T02:35:54.432Z,18.79
2018-06-02T02:38:22.249Z,18.76
2018-06-02T02:40:49.979Z,18.76
2018-06-02T02:43:17.547Z,18.77
2018-06-02T02:45:45.313Z,18.78
2018-06-02T02:48:13.026Z,18.79
2018-06-02T02:50:40.599Z,18.76
2018-06-02T02:53:08.155Z,18.78
2018-06-02T02:55:35.883Z,18.81
2018-06-02T02:58:03.502Z,18.76
2018-06-02T03:00:31.058Z,18.75
2018-06-02T03:02:58.616Z,18.67
2018-06-02T03:05:26.286Z,18.64
2018-06-02T03:07:53.872Z,18.60
2018-06-02T03:10:21.490Z,18.59
2018-06-02T03:12:49.201Z,18.53
2018-06-02T03:15:16.927Z,18.50
2018-06-02T03:17:44.501Z,18.51
2018-06-02T03:20:12.161Z,18.53
2018-06-02T03:22:39.879Z,18.56
2018-06-02T03:25:07.701Z,18.59
2018-06-02T03:27:35.284Z,18.58
2018-06-02T03:30:02.841Z,18.46
2018-06-02T03:32:30.396Z,18.43
2018-06-02T03:34:58.018Z,18.35
2018-06-02T03:37:25.617Z,18.31
2018-06-02T03:39:53.246Z,18.27
2018-06-02T03:42:20.929Z,18.32
2018-06-02T03:44:48.541Z,18.36
2018-06-02T03:47:16.141Z,18.41
2018-06-02T03:49:43.705Z,18.44
2018-06-02T03:52:11.262Z,18.45
2018-06-02T03:54:38.873Z,18.54
2018-06-02T03:57:06.480Z,18.64
2018-06-02T03:59:34.089Z,18.70
2018-06-02T04:02:01.710Z,18.76
2018-06-02T04:04:29.327Z,18.73
2018-06-02T04:06:56.885Z,18.74
2018-06-02T04:09:24.445Z,18.77
2018-06-02T04:11:52.134Z,18.71
2018-06-02T04:14:19.861Z,18.69
2018-06-02T04:16:47.408Z,18.71
2018-06-02T04:19:15.084Z,18.77
2018-06-02T04:21:42.725Z,18.72
2018-06-02T04:24:10.306Z,18.84
2018-06-02T04:26:38.133Z,18.91
2018-06-02T04:29:05.874Z,18.98
2018-06-02T04:31:33.687Z,19.16
2018-06-02T04:34:01.240Z,19.26
2018-06-02T04:36:28.849Z,19.42
2018-06-02T04:38:56.482Z,19.46
2018-06-02T04:41:24.088Z,19.54
2018-06-02T04:43:51.878Z,19.62
2018-06-02T04:46:19.463Z,19.70
2018-06-02T04:48:47.070Z,19.76
2018-06-02T04:51:14.732Z,19.89
2018-06-02T04:53:42.300Z,20.03
2018-06-02T04:56:09.861Z,20.15
2018-06-02T04:58:37.410Z,20.27
2018-06-02T05:01:04.968Z,20.37
2018-06-02T05:03:32.687Z,20.44
2018-06-02T05:06:00.539Z,20.47
2018-06-02T05:08:28.270Z,20.51
2018-06-02T05:10:55.825Z,20.56
2018-06-02T05:13:23.379Z,20.63
2018-06-02T05:15:51.102Z,20.75
2018-06-02T05:18:18.728Z,20.94
2018-06-02T05:20:46.316Z,21.05
2018-06-02T05:23:13.933Z,21.24
2018-06-02T05:25:41.492Z,21.44
2018-06-02T05:28:09.302Z,21.63
2018-06-02T05:30:37.012Z,21.80
2018-06-02T05:33:04.730Z,22.01
2018-06-02T05:35:32.457Z,22.15
2018-06-02T05:38:00.277Z,22.32
2018-06-02T05:40:27.947Z,22.58
2018-06-02T05:42:55.618Z,22.76
2018-06-02T05:45:23.330Z,22.90
2018-06-02T05:47:51.053Z,23.07
2018-06-02T05:50:18.600Z,23.28
2018-06-02T05:52:46.289Z,23.51
2018-06-02T05:55:14.105Z,23.72
2018-06-02T05:57:41.804Z,23.89
2018-06-02T06:00:09.530Z,24.01
2018-06-02T06:02:37.096Z,24.12
2018-06-02T06:05:04.860Z,24.28
2018-06-02T06:07:32.416Z,24.47
2018-06-02T06:09:59.974Z,24.57
2018-06-02T06:12:27.521Z,24.67
2018-06-02T06:14:55.349Z,24.78
2018-06-02T06:17:22.912Z,24.94
2018-06-02T06:19:50.461Z,25.06
2018-06-02T06:22:18.028Z,25.13
2018-06-02T06:24:45.719Z,25.16
2018-06-02T06:27:13.281Z,25.25
2018-06-02T06:29:40.884Z,25.36
2018-06-02T06:32:08.444Z,25.55
2018-06-02T06:34:36.086Z,25.75
2018-06-02T06:37:03.648Z,25.98
2018-06-02T06:39:31.252Z,26.20
2018-06-02T06:41:58.800Z,26.31
2018-06-02T06:44:26.498Z,26.38
2018-06-02T06:46:54.058Z,26.54
2018-06-02T06:49:21.616Z,26.70
2018-06-02T06:51:49.224Z,26.82
2018-06-02T06:54:16.925Z,26.78
2018-06-02T06:56:44.581Z,26.90
2018-06-02T06:59:12.371Z,27.00
2018-06-02T07:01:40.189Z,27.13
2018-06-02T07:04:07.800Z,27.23
2018-06-02T07:06:35.529Z,27.37
2018-06-02T07:09:03.171Z,27.43
2018-06-02T07:11:30.732Z,27.61
2018-06-02T07:13:58.281Z,27.87
2018-06-02T07:16:25.849Z,28.01
2018-06-02T07:18:53.400Z,28.11
2018-06-02T07:21:21.000Z,28.15
2018-06-02T07:23:48.651Z,28.20
2018-06-02T07:26:16.209Z,28.36
2018-06-02T07:28:43.764Z,28.37
2018-06-02T07:31:11.321Z,28.39
2018-06-02T07:33:38.944Z,28.47
2018-06-02T07:36:06.754Z,28.65
2018-06-02T07:38:34.417Z,28.74
2018-06-02T07:41:01.968Z,28.71
2018-06-02T07:43:29.566Z,28.69
2018-06-02T07:45:57.313Z,28.66
2018-06-02T07:48:25.031Z,28.68
2018-06-02T07:50:52.749Z,28.78
2018-06-02T07:53:20.300Z,28.92
2018-06-02T07:55:47.961Z,28.94
2018-06-02T07:58:15.612Z,28.94
2018-06-02T08:00:43.162Z,28.96
2018-06-02T08:03:10.926Z,28.96
2018-06-02T08:05:38.482Z,29.04
2018-06-02T08:08:06.174Z,29.25
2018-06-02T08:10:33.724Z,29.31
2018-06-02T08:13:01.341Z,29.42
2018-06-02T08:15:29.131Z,29.55
2018-06-02T08:17:56.696Z,29.67
2018-06-02T08:20:24.264Z,29.76
2018-06-02T08:22:52.084Z,30.01
2018-06-02T08:25:19.704Z,30.13
2018-06-02T08:27:47.325Z,30.27
2018-06-02T08:30:14.968Z,30.45
2018-06-02T08:32:42.513Z,30.37
2018-06-02T08:35:10.088Z,30.33
2018-06-02T08:37:37.791Z,30.29
2018-06-02T08:40:05.514Z,30.24
2018-06-02T08:42:33.083Z,30.31
2018-06-02T08:45:00.738Z,30.61
2018-06-02T08:47:28.565Z,30.74
2018-06-02T08:49:56.282Z,30.92
2018-06-02T08:52:23.994Z,31.07
2018-06-02T08:54:51.820Z,31.31
2018-06-02T08:57:19.389Z,31.34
2018-06-02T08:59:46.952Z,31.57
2018-06-02T09:02:14.673Z,31.34
2018-06-02T09:04:42.281Z,31.31
2018-06-02T09:07:09.826Z,31.43
2018-06-02T09:09:37.386Z,31.39
2018-06-02T09:12:05.064Z,31.19
2018-06-02T09:14:32.763Z,31.23
2018-06-02T09:17:01.285Z,31.30
2018-06-02T09:19:28.840Z,31.32
2018-06-02T09:21:56.468Z,31.54
2018-06-02T09:24:24.129Z,31.80
2018-06-02T09:26:51.684Z,32.10
2018-06-02T09:29:19.475Z,32.33
2018-06-02T09:31:47.031Z,32.22
2018-06-02T09:34:14.810Z,31.86
2018-06-02T09:36:42.356Z,31.67
2018-06-02T09:39:10.017Z,31.34
2018-06-02T09:41:37.568Z,31.25
2018-06-02T09:44:05.144Z,31.26
2018-06-02T09:46:32.716Z,31.46
2018-06-02T09:49:00.408Z,31.66
2018-06-02T09:51:28.137Z,31.97
2018-06-02T09:53:55.855Z,32.32
2018-06-02T09:56:23.674Z,32.24
2018-06-02T09:58:51.279Z,32.17
2018-06-02T10:01:18.900Z,32.00
2018-06-02T10:03:46.627Z,31.85
2018-06-02T10:06:14.339Z,31.92
2018-06-02T10:08:42.060Z,32.13
2018-06-02T10:11:09.621Z,32.24
2018-06-02T10:13:37.228Z,32.21
2018-06-02T10:16:04.838Z,32.34
2018-06-02T10:18:32.638Z,32.32
2018-06-02T10:21:00.434Z,32.53
2018-06-02T10:23:28.078Z,32.52
2018-06-02T10:25:55.632Z,32.56
2018-06-02T10:28:23.300Z,32.65
2018-06-02T10:30:50.921Z,32.69
2018-06-02T10:33:18.480Z,32.55
2018-06-02T10:35:46.040Z,32.39
2018-06-02T10:38:13.677Z,32.56
2018-06-02T10:40:41.252Z,32.58
2018-06-02T10:43:08.909Z,32.73
2018-06-02T10:45:36.736Z,32.86
2018-06-02T10:48:04.555Z,32.79
2018-06-02T10:50:32.153Z,32.86
2018-06-02T10:52:59.991Z,32.80
2018-06-02T10:55:27.810Z,32.64
2018-06-02T10:57:55.523Z,32.58
2018-06-02T11:00:23.097Z,32.48
2018-06-02T11:02:50.758Z,32.54
2018-06-02T11:05:18.433Z,32.39
2018-06-02T11:07:46.093Z,32.21
2018-06-02T11:10:13.817Z,32.46
2018-06-02T11:12:41.629Z,32.50
2018-06-02T11:15:09.197Z,32.43
2018-06-02T11:17:36.762Z,32.32
2018-06-02T11:20:04.361Z,32.47
2018-06-02T11:22:31.971Z,32.46
2018-06-02T11:24:59.619Z,32.65
2018-06-02T11:27:27.177Z,32.55
2018-06-02T11:29:55.869Z,32.60
2018-06-02T11:32:23.457Z,32.55
2018-06-02T11:34:51.025Z,32.60
2018-06-02T11:37:18.820Z,32.69
2018-06-02T11:39:46.532Z,32.82
2018-06-02T11:42:14.109Z,32.91
2018-06-02T11:44:41.768Z,32.90
2018-06-02T11:47:09.399Z,33.01
2018-06-02T11:49:36.966Z,32.94
2018-06-02T11:52:04.621Z,32.86
2018-06-02T11:54:32.230Z,32.73
2018-06-02T11:56:59.853Z,32.57
2018-06-02T11:59:27.573Z,32.59
2018-06-02T12:01:55.201Z,32.49
2018-06-02T12:04:22.770Z,32.53
2018-06-02T12:06:50.548Z,32.60
2018-06-02T12:09:18.147Z,32.59
2018-06-02T12:11:45.766Z,32.65
2018-06-02T12:14:14.012Z,32.60
2018-06-02T12:16:41.625Z,32.80
2018-06-02T12:19:09.228Z,33.00
2018-06-02T12:21:36.796Z,33.22
2018-06-02T12:24:04.364Z,33.08
2018-06-02T12:26:32.187Z,32.78
2018-06-02T12:28:59.749Z,32.73
2018-06-02T12:31:27.356Z,32.89
2018-06-02T12:33:54.950Z,32.96
2018-06-02T12:36:22.512Z,33.04
2018-06-02T12:38:50.165Z,32.99
2018-06-02T12:41:17.740Z,32.99
2018-06-02T12:43:45.317Z,32.93
2018-06-02T12:46:12.896Z,32.97
2018-06-02T12:48:40.508Z,32.79
2018-06-02T12:51:08.255Z,32.85
2018-06-02T12:53:35.988Z,32.94
2018-06-02T12:56:03.791Z,33.12
2018-06-02T12:58:31.354Z,33.28
2018-06-02T13:00:58.908Z,33.22
2018-06-02T13:03:26.549Z,33.14
2018-06-02T13:05:54.364Z,33.14
2018-06-02T13:08:22.191Z,33.04
2018-06-02T13:10:49.752Z,33.07
2018-06-02T13:13:17.528Z,33.06
2018-06-02T13:15:45.085Z,32.98
2018-06-02T13:18:12.688Z,32.97
2018-06-02T13:20:40.237Z,32.87
2018-06-02T13:23:07.980Z,32.82
2018-06-02T13:25:35.717Z,32.88
2018-06-02T13:28:03.284Z,32.76
2018-06-02T13:30:31.033Z,32.69
2018-06-02T13:32:58.597Z,32.82
2018-06-02T13:35:26.223Z,32.85
2018-06-02T13:37:53.780Z,32.69
2018-06-02T13:40:21.417Z,32.80
2018-06-02T13:42:49.001Z,32.85
2018-06-02T13:45:16.573Z,32.90
2018-06-02T13:47:45.150Z,32.75
2018-06-02T13:50:12.700Z,32.75
2018-06-02T13:52:40.518Z,32.83
2018-06-02T13:55:08.139Z,32.80
2018-06-02T13:57:35.733Z,32.79
2018-06-02T14:00:03.458Z,32.87
2018-06-02T14:02:31.182Z,32.91
2018-06-02T14:04:59.006Z,32.91
2018-06-02T14:07:26.831Z,32.79
2018-06-02T14:09:54.538Z,32.53
2018-06-02T14:12:22.272Z,32.50
2018-06-02T14:14:50.066Z,32.49
2018-06-02T14:17:17.697Z,32.48
2018-06-02T14:19:45.310Z,32.53
2018-06-02T14:22:13.118Z,32.43
2018-06-02T14:24:40.957Z,32.47
2018-06-02T14:27:08.548Z,32.47
2018-06-02T14:29:36.173Z,32.38
2018-06-02T14:32:03.724Z,32.42
2018-06-02T14:34:31.435Z,32.55
2018-06-02T14:36:58.985Z,32.40
2018-06-02T14:39:26.670Z,32.23
2018-06-02T14:41:54.232Z,32.21
2018-06-02T14:44:21.793Z,32.20
2018-06-02T14:46:49.356Z,32.13
2018-06-02T14:49:17.124Z,32.15
2018-06-02T14:51:44.829Z,32.15
2018-06-02T14:54:12.397Z,32.17
2018-06-02T14:56:40.195Z,32.06
2018-06-02T14:59:07.817Z,32.02
2018-06-02T15:01:35.629Z,31.87
2018-06-02T15:04:03.338Z,31.70
2018-06-02T15:06:30.896Z,31.57
2018-06-02T15:08:58.783Z,31.44
2018-06-02T15:11:26.329Z,31.32
2018-06-02T15:13:53.876Z,31.18
2018-06-02T15:16:21.443Z,31.16
2018-06-02T15:18:49.255Z,31.12
2018-06-02T15:21:16.826Z,31.12
2018-06-02T15:23:44.405Z,31.09
2018-06-02T15:26:12.009Z,30.89
2018-06-02T15:28:39.831Z,30.94
2018-06-02T15:31:07.485Z,31.00
2018-06-02T15:33:35.037Z,30.98
2018-06-02T15:36:02.674Z,30.97
2018-06-02T15:38:30.302Z,30.87
2018-06-02T15:40:58.116Z,30.78
2018-06-02T15:43:25.793Z,30.71
2018-06-02T15:45:53.453Z,30.72
2018-06-02T15:48:21.017Z,30.54
2018-06-02T15:50:48.580Z,30.52
2018-06-02T15:53:16.408Z,30.38
2018-06-02T15:55:44.219Z,30.35
2018-06-02T15:58:11.767Z,30.32
2018-06-02T16:00:39.391Z,30.25
2018-06-02T16:03:06.996Z,30.23
2018-06-02T16:05:34.726Z,30.19
2018-06-02T16:08:02.519Z,30.19
2018-06-02T16:10:30.134Z,30.17
2018-06-02T16:12:57.768Z,30.14
2018-06-02T16:15:25.395Z,30.04
2018-06-02T16:17:53.092Z,30.03
2018-06-02T16:20:20.641Z,29.88
2018-06-02T16:22:48.271Z,29.80
2018-06-02T16:25:15.832Z,29.66
2018-06-02T16:27:43.464Z,29.54
2018-06-02T16:30:11.117Z,29.47
2018-06-02T16:32:38.685Z,29.43
2018-06-02T16:35:06.292Z,29.27
2018-06-02T16:37:33.933Z,29.05
2018-06-02T16:40:01.487Z,28.85
2018-06-02T16:42:29.165Z,28.77
2018-06-02T16:44:56.877Z,28.62
2018-06-02T16:47:24.454Z,28.50
2018-06-02T16:49:52.228Z,28.40
2018-06-02T16:52:19.836Z,28.29
2018-06-02T16:54:47.559Z,28.17
2018-06-02T16:57:15.380Z,28.00
2018-06-02T16:59:43.087Z,27.91
2018-06-02T17:02:10.906Z,27.84
2018-06-02T17:04:38.627Z,27.80
2018-06-02T17:07:06.197Z,27.72
2018-06-02T17:09:33.970Z,27.62
2018-06-02T17:12:01.525Z,27.56
2018-06-02T17:14:29.072Z,27.54
2018-06-02T17:16:56.709Z,27.44
2018-06-02T17:19:24.280Z,27.42
2018-06-02T17:21:51.850Z,27.29
2018-06-02T17:24:19.408Z,27.21
2018-06-02T17:26:47.143Z,27.19
2018-06-02T17:29:14.896Z,27.12
2018-06-02T17:31:42.526Z,27.06
2018-06-02T17:34:10.089Z,27.02
2018-06-02T17:36:37.759Z,26.97
2018-06-02T17:39:06.390Z,26.83
2018-06-02T17:41:33.944Z,26.74
2018-06-02T17:44:01.825Z,26.67
2018-06-02T17:46:29.474Z,26.66
2018-06-02T17:48:57.154Z,26.58
2018-06-02T17:51:24.786Z,26.50
2018-06-02T17:53:52.355Z,26.40
2018-06-02T17:56:20.122Z,26.25
2018-06-02T17:58:47.703Z,26.13
2018-06-02T18:01:15.340Z,26.09
2018-06-02T18:03:42.904Z,26.03
2018-06-02T18:06:10.475Z,25.93
2018-06-02T18:08:38.253Z,25.84
2018-06-02T18:11:05.869Z,25.72
2018-06-02T18:13:33.473Z,25.65
2018-06-02T18:16:01.089Z,25.65
2018-06-02T18:18:28.859Z,25.64
2018-06-02T18:20:56.479Z,25.60
2018-06-02T18:23:24.113Z,25.54
2018-06-02T18:25:51.673Z,25.43
2018-06-02T18:28:19.228Z,25.38
2018-06-02T18:30:46.840Z,25.31
2018-06-02T18:33:14.401Z,25.24
2018-06-02T18:35:42.104Z,25.25
2018-06-02T18:38:09.825Z,25.20
2018-06-02T18:40:37.400Z,25.20
2018-06-02T18:43:05.060Z,25.19
2018-06-02T18:45:32.879Z,25.15
2018-06-02T18:48:00.591Z,25.08
2018-06-02T18:50:28.413Z,25.06
2018-06-02T18:52:56.012Z,25.01
2018-06-02T18:55:23.750Z,24.99
2018-06-02T18:57:51.305Z,24.92
2018-06-02T19:00:18.864Z,24.88
2018-06-02T19:02:46.432Z,24.85
2018-06-02T19:05:14.207Z,24.84
2018-06-02T19:07:41.825Z,24.80
2018-06-02T19:10:09.449Z,24.75
2018-06-02T19:12:37.018Z,24.67
2018-06-02T19:15:04.895Z,24.63
2018-06-02T19:17:32.513Z,24.51
2018-06-02T19:20:00.322Z,24.47
2018-06-02T19:22:28.041Z,24.36
2018-06-02T19:24:55.601Z,24.30
2018-06-02T19:27:23.249Z,24.24
2018-06-02T19:29:50.876Z,24.19
2018-06-02T19:32:18.521Z,24.14
2018-06-02T19:34:46.085Z,24.11
2018-06-02T19:37:13.692Z,24.06
2018-06-02T19:39:41.236Z,24.04
2018-06-02T19:42:08.986Z,23.98
2018-06-02T19:44:36.564Z,23.94
2018-06-02T19:47:04.332Z,23.94
2018-06-02T19:49:32.049Z,23.94
2018-06-02T19:51:59.600Z,23.85
2018-06-02T19:54:27.391Z,23.80
2018-06-02T19:56:55.000Z,23.75
2018-06-02T19:59:22.721Z,23.67
2018-06-02T20:01:50.276Z,23.62
2018-06-02T20:04:17.957Z,23.56
2018-06-02T20:06:45.673Z,23.50
2018-06-02T20:09:13.295Z,23.47
2018-06-02T20:11:41.192Z,23.44
2018-06-02T20:14:08.929Z,23.39
2018-06-02T20:16:36.657Z,23.36
2018-06-02T20:19:04.289Z,23.32
2018-06-02T20:21:31.884Z,23.28
2018-06-02T20:23:59.707Z,23.22
2018-06-02T20:26:27.446Z,23.16
2018-06-02T20:28:55.121Z,23.08
2018-06-02T20:31:22.856Z,23.01
2018-06-02T20:33:50.418Z,22.94
2018-06-02T20:36:18.150Z,22.85
2018-06-02T20:38:45.867Z,22.75
2018-06-02T20:41:13.441Z,22.73
2018-06-02T20:43:41.053Z,22.71
2018-06-02T20:46:08.672Z,22.69
2018-06-02T20:48:36.221Z,22.71
2018-06-02T20:51:03.849Z,22.66
2018-06-02T20:53:31.515Z,22.63
2018-06-02T20:55:59.245Z,22.57
2018-06-02T20:58:26.950Z,22.49
2018-06-02T21:00:54.779Z,22.44
2018-06-02T21:03:22.496Z,22.41
2018-06-02T21:05:50.064Z,22.34
2018-06-02T21:08:17.729Z,22.32
2018-06-02T21:10:45.293Z,22.27
2018-06-02T21:13:12.844Z,22.20
2018-06-02T21:15:40.404Z,22.13
2018-06-02T21:18:07.960Z,22.01
2018-06-02T21:20:35.516Z,21.94
2018-06-02T21:23:03.231Z,21.85
2018-06-02T21:25:30.789Z,21.82
2018-06-02T21:27:58.508Z,21.74
2018-06-02T21:30:26.291Z,21.73
2018-06-02T21:32:53.909Z,21.72
2018-06-02T21:35:21.514Z,21.68
2018-06-02T21:37:49.060Z,21.60
2018-06-02T21:40:16.768Z,21.62
2018-06-02T21:42:44.377Z,21.61
2018-06-02T21:45:11.980Z,21.60
2018-06-02T21:47:39.613Z,21.52
2018-06-02T21:50:07.210Z,21.52
2018-06-02T21:52:34.764Z,21.47
2018-06-02T21:55:02.320Z,21.43
2018-06-02T21:57:29.864Z,21.37
2018-06-02T21:59:57.497Z,21.31
2018-06-02T22:02:25.052Z,21.25
2018-06-02T22:04:52.943Z,21.21
2018-06-02T22:07:20.549Z,21.17
2018-06-02T22:09:48.281Z,21.11
2018-06-02T22:12:15.997Z,21.08
2018-06-02T22:14:43.616Z,21.04
2018-06-02T22:17:11.329Z,21.06
2018-06-02T22:19:39.153Z,21.03
2018-06-02T22:22:06.821Z,21.03
2018-06-02T22:24:34.489Z,20.96
2018-06-02T22:27:02.106Z,20.89
2018-06-02T22:29:29.817Z,20.90
2018-06-02T22:31:57.368Z,20.87
2018-06-02T22:34:24.927Z,20.80
2018-06-02T22:36:52.627Z,20.74
2018-06-02T22:39:20.248Z,20.72
2018-06-02T22:41:47.908Z,20.74
2018-06-02T22:44:15.461Z,20.73
2018-06-02T22:46:43.029Z,20.76
2018-06-02T22:49:10.584Z,20.78
2018-06-02T22:51:50.034Z,20.81
2018-06-02T22:54:17.947Z,20.70
2018-06-02T22:56:45.632Z,20.61
2018-06-02T22:59:13.256Z,20.51
2018-06-02T23:01:41.079Z,20.46
2018-06-02T23:04:08.709Z,20.41
2018-06-02T23:06:36.539Z,20.36
2018-06-02T23:09:04.228Z,20.31
2018-06-02T23:11:31.873Z,20.28
2018-06-02T23:13:59.488Z,20.20
2018-06-02T23:16:27.037Z,20.13
2018-06-02T23:18:54.590Z,20.09
2018-06-02T23:21:22.150Z,20.10
2018-06-02T23:23:49.855Z,20.10
2018-06-02T23:26:17.485Z,20.11
2018-06-02T23:28:45.036Z,20.09
2018-06-02T23:31:12.809Z,20.09
2018-06-02T23:33:40.527Z,20.10
2018-06-02T23:36:08.087Z,20.10
2018-06-02T23:38:35.661Z,20.09
2018-06-02T23:41:03.212Z,20.13
2018-06-02T23:43:31.009Z,20.10
2018-06-02T23:45:58.574Z,20.14
2018-06-02T23:48:26.444Z,20.17
2018-06-02T23:50:54.163Z,20.13
2018-06-02T23:53:21.785Z,20.11
2018-06-02T23:55:49.412Z,20.02
2018-06-02T23:58:16.976Z,20.02
